Salem, Virginia
Current Conditions -  °F | °C
As of 6:54 AM on Monday 24 Nov 2014 (Local Time) from KROA Reporting Station
Moderate Fog Moderate Fog  
Wind Chill: 48°   Ceiling: 200
Heat Index: 48°   Visibility: 0.25mi
Dew Point: 47°   Wind: 0mph
Humidity: 96%   Direction: NA
Pressure: 29.73"   Gusts: NA
Location:  37.29°N, 80.05°W
Report Text: KROA 241154Z 00000KT 1/4SM FG BKN002 OVC026 09/08 A2973 RMK AO2 SLP067 70083 T00890083 10111 20083 53009
Loading
Personal Weather Stations






























Interactive Weather Map New forecast layout! Learn more

10-Day Weather Forecast

Advertisements
Track Severe Weather on mobile